createdAt,value
2019-04-06T00:02:28.525Z,26.35
2019-04-06T00:04:57.236Z,26.93
2019-04-06T00:07:26.000Z,25.30
2019-04-06T00:09:54.712Z,23.73
2019-04-06T00:12:23.559Z,30.37
2019-04-06T00:14:52.451Z,22.65
2019-04-06T00:17:21.215Z,25.50
2019-04-06T00:19:49.996Z,22.73
2019-04-06T00:22:18.620Z,21.35
2019-04-06T00:24:47.447Z,28.10
2019-04-06T00:27:16.453Z,23.20
2019-04-06T00:29:45.192Z,23.67
2019-04-06T00:32:33.344Z,21.30
2019-04-06T00:35:02.145Z,19.57
2019-04-06T00:37:30.885Z,23.60
2019-04-06T00:39:59.536Z,22.62
2019-04-06T00:42:28.186Z,26.73
2019-04-06T00:44:57.023Z,22.42
2019-04-06T00:47:25.755Z,22.60
2019-04-06T00:49:54.515Z,24.90
2019-04-06T00:52:23.231Z,26.55
2019-04-06T00:54:51.920Z,25.77
2019-04-06T00:57:20.988Z,21.97
2019-04-06T00:59:50.414Z,23.10
2019-04-06T01:02:19.295Z,23.18
2019-04-06T01:04:47.979Z,21.57
2019-04-06T01:07:17.899Z,22.15
2019-04-06T01:09:47.072Z,22.50
2019-04-06T01:12:15.868Z,23.47
2019-04-06T01:14:44.560Z,20.57
2019-04-06T01:17:13.180Z,22.50
2019-04-06T01:19:42.900Z,20.20
2019-04-06T01:22:11.677Z,19.65
2019-04-06T01:24:40.378Z,21.12
2019-04-06T01:27:09.568Z,20.57
2019-04-06T01:29:38.340Z,19.17
2019-04-06T01:32:07.032Z,26.45
2019-04-06T01:34:35.805Z,23.12
2019-04-06T01:37:04.646Z,20.52
2019-04-06T01:39:33.295Z,21.45
2019-04-06T01:42:02.004Z,23.02
2019-04-06T01:44:30.700Z,29.15
2019-04-06T01:46:59.468Z,22.87
2019-04-06T01:49:28.183Z,25.35
2019-04-06T01:51:56.877Z,22.42
2019-04-06T01:54:25.588Z,23.90
2019-04-06T01:56:54.320Z,25.32
2019-04-06T01:59:24.212Z,25.15
2019-04-06T02:01:54.548Z,24.85
2019-04-06T02:04:23.307Z,21.12
2019-04-06T02:06:52.153Z,25.88
2019-04-06T02:09:20.796Z,24.40
2019-04-06T02:11:49.453Z,24.20
2019-04-06T02:14:18.173Z,24.85
2019-04-06T02:16:46.952Z,24.52
2019-04-06T02:19:15.709Z,30.30
2019-04-06T02:21:44.469Z,28.38
2019-04-06T02:24:13.154Z,28.32
2019-04-06T02:26:41.907Z,28.90
2019-04-06T02:29:10.606Z,29.27
2019-04-06T02:31:46.714Z,33.98
2019-04-06T02:34:22.779Z,31.12
2019-04-06T02:37:01.722Z,35.03
2019-04-06T02:39:32.130Z,33.67
2019-04-06T02:42:02.539Z,34.70
2019-04-06T02:44:31.157Z,36.23
2019-04-06T02:46:59.852Z,37.53
2019-04-06T02:49:28.605Z,39.58
2019-04-06T02:51:57.364Z,35.28
2019-04-06T02:54:26.106Z,37.50
2019-04-06T02:56:54.733Z,36.77
2019-04-06T02:59:23.525Z,38.20
2019-04-06T03:01:52.332Z,38.28
2019-04-06T03:04:20.953Z,38.40
2019-04-06T03:06:49.707Z,37.38
2019-04-06T03:09:18.414Z,38.20
2019-04-06T03:11:47.034Z,39.18
2019-04-06T03:14:15.720Z,39.70
2019-04-06T03:16:44.473Z,40.40
2019-04-06T03:19:13.229Z,41.05
2019-04-06T03:21:41.930Z,41.42
2019-04-06T03:24:10.724Z,42.43
2019-04-06T03:26:39.417Z,41.42
2019-04-06T03:29:08.166Z,43.45
2019-04-06T03:31:37.213Z,46.65
2019-04-06T03:34:05.999Z,46.28
2019-04-06T03:36:34.781Z,40.40
2019-04-06T03:39:05.367Z,44.63
2019-04-06T03:41:34.132Z,45.80
2019-04-06T03:44:03.043Z,45.83
2019-04-06T03:46:31.637Z,46.05
2019-04-06T03:49:00.247Z,44.95
2019-04-06T03:51:28.943Z,50.98
2019-04-06T03:53:57.695Z,44.88
2019-04-06T03:56:26.703Z,48.87
2019-04-06T03:58:55.420Z,47.20
2019-04-06T04:01:24.321Z,40.28
2019-04-06T04:03:53.364Z,45.88
2019-04-06T04:06:22.196Z,41.50
2019-04-06T04:08:50.898Z,42.98
2019-04-06T04:11:19.585Z,43.15
2019-04-06T04:13:48.285Z,42.35
2019-04-06T04:16:16.957Z,45.98
2019-04-06T04:18:45.696Z,43.58
2019-04-06T04:21:14.345Z,40.60
2019-04-06T04:23:43.140Z,44.35
2019-04-06T04:26:11.908Z,42.70
2019-04-06T04:28:40.609Z,42.10
2019-04-06T04:31:09.354Z,44.63
2019-04-06T04:33:38.090Z,40.38
2019-04-06T04:36:06.909Z,41.45
2019-04-06T04:38:35.486Z,47.27
2019-04-06T04:41:04.219Z,44.90
2019-04-06T04:43:33.198Z,40.10
2019-04-06T04:46:01.902Z,43.58
2019-04-06T04:48:30.589Z,40.83
2019-04-06T04:50:59.275Z,48.02
2019-04-06T04:53:27.889Z,41.02
2019-04-06T04:55:56.969Z,43.30
2019-04-06T04:58:25.647Z,46.83
2019-04-06T05:00:54.274Z,43.73
2019-04-06T05:03:22.954Z,42.75
2019-04-06T05:05:51.640Z,42.80
2019-04-06T05:08:20.393Z,41.05
2019-04-06T05:10:49.013Z,37.88
2019-04-06T05:13:17.698Z,41.73
2019-04-06T05:16:11.085Z,37.50
2019-04-06T05:18:40.845Z,38.45
2019-04-06T05:21:10.408Z,38.38
2019-04-06T05:23:39.172Z,38.48
2019-04-06T05:26:08.925Z,37.13
2019-04-06T05:28:37.668Z,36.98
2019-04-06T05:31:07.157Z,35.40
2019-04-06T05:33:35.927Z,34.83
2019-04-06T05:36:04.883Z,39.45
2019-04-06T05:38:33.485Z,37.13
2019-04-06T05:41:02.437Z,37.53
2019-04-06T05:43:31.133Z,42.25
2019-04-06T05:45:59.778Z,40.35
2019-04-06T05:48:28.517Z,36.65
2019-04-06T05:50:57.206Z,34.25
2019-04-06T05:53:25.900Z,35.30
2019-04-06T05:55:54.595Z,32.80
2019-04-06T05:58:23.364Z,34.73
2019-04-06T06:00:52.117Z,32.38
2019-04-06T06:03:20.807Z,29.80
2019-04-06T06:05:49.651Z,29.40
2019-04-06T06:08:18.301Z,27.62
2019-04-06T06:10:46.994Z,34.95
2019-04-06T06:13:15.682Z,34.20
2019-04-06T06:15:44.427Z,30.82
2019-04-06T06:18:13.222Z,26.77
2019-04-06T06:20:41.915Z,28.25
2019-04-06T06:23:10.660Z,27.17
2019-04-06T06:25:39.359Z,33.42
2019-04-06T06:28:14.465Z,29.02
2019-04-06T06:30:38.515Z,36.25
2019-04-06T06:33:07.183Z,30.17
2019-04-06T06:35:35.882Z,32.90
2019-04-06T06:38:04.868Z,36.03
2019-04-06T06:40:33.631Z,34.53
2019-04-06T06:43:02.246Z,35.08
2019-04-06T06:45:30.936Z,39.65
2019-04-06T06:47:59.558Z,36.03
2019-04-06T06:50:28.408Z,33.73
2019-04-06T06:52:57.101Z,39.10
2019-04-06T06:55:26.932Z,35.78
2019-04-06T06:57:56.131Z,38.23
2019-04-06T07:00:24.944Z,40.43
2019-04-06T07:02:53.649Z,37.80
2019-04-06T07:05:22.334Z,38.25
2019-04-06T07:07:51.035Z,43.17
2019-04-06T07:10:19.780Z,40.98
2019-04-06T07:12:48.475Z,41.08
2019-04-06T07:15:17.223Z,46.30
2019-04-06T07:17:45.930Z,42.05
2019-04-06T07:20:15.083Z,45.60
2019-04-06T07:22:43.812Z,42.48
2019-04-06T07:25:12.619Z,40.40
2019-04-06T07:27:41.181Z,47.35
2019-04-06T07:30:10.151Z,42.53
2019-04-06T07:32:38.905Z,44.65
2019-04-06T07:35:07.775Z,41.83
2019-04-06T07:37:36.592Z,50.55
2019-04-06T07:40:07.607Z,41.00
2019-04-06T07:42:36.301Z,40.88
2019-04-06T07:45:06.622Z,39.70
2019-04-06T07:47:35.231Z,38.13
2019-04-06T07:50:06.661Z,37.53
2019-04-06T07:52:35.609Z,38.17
2019-04-06T07:55:08.208Z,39.95
2019-04-06T07:57:36.969Z,39.80
2019-04-06T08:00:07.226Z,42.85
2019-04-06T08:02:35.990Z,41.53
2019-04-06T08:05:06.105Z,40.20
2019-04-06T08:07:34.838Z,44.67
2019-04-06T08:10:03.681Z,38.42
2019-04-06T08:12:32.368Z,45.17
2019-04-06T08:15:01.121Z,42.40
2019-04-06T08:17:29.848Z,43.90
2019-04-06T08:19:58.477Z,44.08
2019-04-06T08:22:27.240Z,42.65
2019-04-06T08:24:55.918Z,40.33
2019-04-06T08:27:24.672Z,42.05
2019-04-06T08:29:53.363Z,41.90
2019-04-06T08:32:22.060Z,41.05
2019-04-06T08:34:50.806Z,41.02
2019-04-06T08:37:19.586Z,43.00
2019-04-06T08:39:48.348Z,42.90
2019-04-06T08:42:17.237Z,38.90
2019-04-06T08:44:45.902Z,41.25
2019-04-06T08:47:14.656Z,38.98
2019-04-06T08:49:43.292Z,36.10
2019-04-06T08:52:12.326Z,37.90
2019-04-06T08:54:41.061Z,38.30
2019-04-06T08:57:09.813Z,38.50
2019-04-06T08:59:38.509Z,34.55
2019-04-06T09:02:07.361Z,36.28
2019-04-06T09:04:36.062Z,33.08
2019-04-06T09:07:04.975Z,30.48
2019-04-06T09:09:33.811Z,30.55
2019-04-06T09:12:02.387Z,32.35
2019-04-06T09:14:31.113Z,31.70
2019-04-06T09:16:59.879Z,31.68
2019-04-06T09:19:28.679Z,33.92
2019-04-06T09:21:57.285Z,30.17
2019-04-06T09:24:26.031Z,30.80
2019-04-06T09:26:54.934Z,30.60
2019-04-06T09:29:24.617Z,30.48
2019-04-06T09:31:53.840Z,28.12
2019-04-06T09:34:22.593Z,25.57
2019-04-06T09:36:51.593Z,27.02
2019-04-06T09:39:20.264Z,26.50
2019-04-06T09:41:48.894Z,23.55
2019-04-06T09:44:35.340Z,22.90
2019-04-06T09:47:06.955Z,19.35
2019-04-06T09:49:55.263Z,23.67
2019-04-06T09:52:31.185Z,20.85
2019-04-06T09:55:01.505Z,21.65
2019-04-06T09:57:47.841Z,19.62
2019-04-06T10:00:18.574Z,21.10
2019-04-06T10:02:48.910Z,20.70
2019-04-06T10:05:19.289Z,19.75
2019-04-06T10:08:05.591Z,20.48
2019-04-06T10:10:41.774Z,17.15
2019-04-06T10:13:23.949Z,18.98
2019-04-06T10:16:10.382Z,14.23
2019-04-06T10:18:43.340Z,14.98
2019-04-06T10:21:29.855Z,18.43
2019-04-06T10:24:02.985Z,16.10
2019-04-06T10:26:39.207Z,20.95
2019-04-06T10:29:25.397Z,18.70
2019-04-06T10:32:11.819Z,20.80
2019-04-06T10:34:42.239Z,21.90
2019-04-06T10:37:28.444Z,24.10
2019-04-06T10:40:01.434Z,30.15
2019-04-06T10:42:37.403Z,26.17
2019-04-06T10:45:08.570Z,26.33
2019-04-06T10:47:56.577Z,26.12
2019-04-06T10:50:30.589Z,23.77
2019-04-06T10:55:47.757Z,23.18
2019-04-06T10:58:26.662Z,23.15
2019-04-06T11:01:08.599Z,27.37
2019-04-06T11:03:47.636Z,25.10
2019-04-06T11:06:17.890Z,23.10
2019-04-06T11:08:50.821Z,26.97
2019-04-06T11:11:23.893Z,23.83
2019-04-06T11:14:09.037Z,24.43
2019-04-06T11:16:48.335Z,25.08
2019-04-06T11:19:33.444Z,27.45
2019-04-06T11:22:17.098Z,47.98
2019-04-06T11:24:56.268Z,61.48
2019-04-06T11:27:41.570Z,30.50
2019-04-06T11:30:17.697Z,26.73
2019-04-06T11:32:51.396Z,43.33
2019-04-06T11:35:37.537Z,53.63
2019-04-06T11:38:10.554Z,27.37
2019-04-06T11:40:46.612Z,26.73
2019-04-06T11:43:22.742Z,29.55
2019-04-06T11:45:55.809Z,25.30
2019-04-06T11:48:26.125Z,25.95
2019-04-06T11:50:59.193Z,29.07
2019-04-06T11:53:32.137Z,27.22
2019-04-06T11:56:17.369Z,34.23
2019-04-06T11:59:02.654Z,28.00
2019-04-06T12:01:41.997Z,26.15
2019-04-06T12:04:21.088Z,24.10
2019-04-06T12:06:51.433Z,25.45
2019-04-06T12:09:33.652Z,25.15
2019-04-06T12:12:16.081Z,25.23
2019-04-06T12:14:52.394Z,25.37
2019-04-06T12:17:22.669Z,24.47
2019-04-06T12:19:53.023Z,25.80
2019-04-06T12:22:38.008Z,21.97
2019-04-06T12:25:11.808Z,22.37
2019-04-06T12:27:44.760Z,22.17
2019-04-06T12:30:37.274Z,26.13
2019-04-06T12:33:05.827Z,23.67
2019-04-06T12:35:45.225Z,20.60
2019-04-06T12:38:18.153Z,22.48
2019-04-06T12:40:48.553Z,19.17
2019-04-06T12:43:21.411Z,19.62
2019-04-06T12:45:54.301Z,24.87
2019-04-06T12:48:27.373Z,21.50
2019-04-06T12:50:57.743Z,21.20
2019-04-06T12:53:30.729Z,19.80
2019-04-06T12:56:12.956Z,22.67
2019-04-06T12:58:55.210Z,24.05
2019-04-06T13:01:41.905Z,22.40
2019-04-06T13:04:30.322Z,21.55
2019-04-06T13:07:12.964Z,20.70
2019-04-06T13:09:43.353Z,26.17
2019-04-06T13:12:29.581Z,21.10
2019-04-06T13:15:00.246Z,26.80
2019-04-06T13:17:36.063Z,23.10
2019-04-06T13:20:17.383Z,23.57
2019-04-06T13:23:02.697Z,19.73
2019-04-06T13:25:38.793Z,20.88
2019-04-06T13:28:11.817Z,22.10
2019-04-06T13:31:01.230Z,23.83
2019-04-06T13:33:25.456Z,21.65
2019-04-06T13:36:11.884Z,24.85
2019-04-06T13:38:48.116Z,23.32
2019-04-06T13:41:27.706Z,24.55
2019-04-06T13:44:10.863Z,20.65
2019-04-06T13:46:41.769Z,20.32
2019-04-06T13:49:29.924Z,20.85
2019-04-06T13:52:12.246Z,22.65
2019-04-06T13:54:45.095Z,21.97
2019-04-06T13:57:17.951Z,22.77
2019-04-06T13:59:48.338Z,26.77
2019-04-06T14:02:36.410Z,25.10
2019-04-06T14:05:11.062Z,23.60
2019-04-06T14:07:41.371Z,23.95
2019-04-06T14:10:11.969Z,25.20
2019-04-06T14:12:54.537Z,24.15
2019-04-06T14:15:33.889Z,26.07
2019-04-06T14:18:04.355Z,21.93
2019-04-06T14:20:37.241Z,20.57
2019-04-06T14:23:07.960Z,21.60
2019-04-06T14:25:50.081Z,23.18
2019-04-06T14:28:29.648Z,24.07
2019-04-06T14:31:11.960Z,22.95
2019-04-06T14:33:48.310Z,21.05
2019-04-06T14:36:27.378Z,22.40
2019-04-06T14:38:57.722Z,22.22
2019-04-06T14:41:39.769Z,19.45
2019-04-06T14:44:18.692Z,20.40
2019-04-06T14:46:54.835Z,21.17
2019-04-06T14:49:33.035Z,22.67
2019-04-06T14:52:20.858Z,20.43
2019-04-06T14:54:51.199Z,20.77
2019-04-06T14:57:30.539Z,23.30
2019-04-06T15:00:18.760Z,21.27
2019-04-06T15:02:51.769Z,22.15
2019-04-06T15:05:22.105Z,25.35
2019-04-06T15:07:52.415Z,19.70
2019-04-06T15:10:28.668Z,24.23
2019-04-06T15:13:04.571Z,23.60
2019-04-06T15:15:35.167Z,21.85
2019-04-06T15:18:20.608Z,18.35
2019-04-06T15:20:51.022Z,18.75
2019-04-06T15:23:21.427Z,17.92
2019-04-06T15:26:00.493Z,24.30
2019-04-06T15:28:30.865Z,19.02
2019-04-06T15:31:01.181Z,21.68
2019-04-06T15:33:31.515Z,20.90
2019-04-06T15:36:04.910Z,17.70
2019-04-06T15:38:35.282Z,16.87
2019-04-06T15:41:17.246Z,15.38
2019-04-06T15:43:47.616Z,16.07
2019-04-06T15:46:17.950Z,16.73
2019-04-06T15:49:03.020Z,18.60
2019-04-06T15:51:33.359Z,18.60
2019-04-06T15:54:09.611Z,19.30
2019-04-06T15:56:42.562Z,20.50
2019-04-06T15:59:12.962Z,15.80
2019-04-06T16:01:43.285Z,18.75
2019-04-06T16:04:29.441Z,19.10
2019-04-06T16:07:11.627Z,17.10
2019-04-06T16:09:48.114Z,15.93
2019-04-06T16:12:18.965Z,17.65
2019-04-06T16:14:49.628Z,16.35
2019-04-06T16:17:29.021Z,17.67
2019-04-06T16:20:08.201Z,15.78
2019-04-06T16:22:54.344Z,18.70
2019-04-06T16:25:24.867Z,18.87
2019-04-06T16:28:11.394Z,15.80
2019-04-06T16:30:41.803Z,14.60
2019-04-06T16:33:27.228Z,17.85
2019-04-06T16:36:10.335Z,17.15
2019-04-06T16:38:58.450Z,18.37
2019-04-06T16:41:28.854Z,18.90
2019-04-06T16:44:15.585Z,20.17
2019-04-06T16:46:46.176Z,19.67
2019-04-06T16:49:28.318Z,18.42
2019-04-06T16:52:04.481Z,18.42
2019-04-06T16:54:40.581Z,20.30
2019-04-06T16:57:13.507Z,23.55
2019-04-06T16:59:59.801Z,20.47
2019-04-06T17:02:44.845Z,21.57
2019-04-06T17:05:20.736Z,25.37
2019-04-06T17:07:53.686Z,22.17
2019-04-06T17:10:30.065Z,25.63
2019-04-06T17:13:00.618Z,20.72
2019-04-06T17:15:40.107Z,19.82
2019-04-06T17:18:10.362Z,20.02
2019-04-06T17:20:52.458Z,19.07
2019-04-06T17:23:31.753Z,23.67
2019-04-06T17:26:10.994Z,26.33
2019-04-06T17:28:57.663Z,25.05
2019-04-06T17:31:34.601Z,20.57
2019-04-06T17:34:21.139Z,25.25
2019-04-06T17:37:07.416Z,22.85
2019-04-06T17:39:46.377Z,23.80
2019-04-06T17:42:16.768Z,20.95
2019-04-06T17:45:03.165Z,25.85
2019-04-06T17:47:49.664Z,30.62
2019-04-06T17:50:28.764Z,23.57
2019-04-06T17:53:01.855Z,23.67
2019-04-06T17:55:34.766Z,26.30
2019-04-06T17:58:14.179Z,26.50
2019-04-06T18:00:59.481Z,28.73
2019-04-06T18:03:45.857Z,26.73
2019-04-06T18:06:25.153Z,26.42
2019-04-06T18:08:58.053Z,28.00
2019-04-06T18:11:28.360Z,23.47
2019-04-06T18:13:58.570Z,25.55
2019-04-06T18:16:29.051Z,24.72
2019-04-06T18:18:57.753Z,24.60
2019-04-06T18:21:26.320Z,27.85
2019-04-06T18:23:57.532Z,24.67
2019-04-06T18:26:26.303Z,27.82
2019-04-06T18:28:55.115Z,26.95
2019-04-06T18:31:31.354Z,32.95
2019-04-06T18:34:00.152Z,29.95
2019-04-06T18:36:30.469Z,33.28
2019-04-06T18:39:00.855Z,28.57
2019-04-06T18:41:29.484Z,29.55
2019-04-06T18:43:58.240Z,31.10
2019-04-06T18:46:27.375Z,27.20
2019-04-06T18:48:56.681Z,28.20
2019-04-06T18:51:25.353Z,29.07
2019-04-06T18:53:54.040Z,29.35
2019-04-06T18:56:22.780Z,31.85
2019-04-06T18:58:51.549Z,32.17
2019-04-06T19:01:20.981Z,31.42
2019-04-06T19:03:49.756Z,31.07
2019-04-06T19:06:19.003Z,31.30
2019-04-06T19:08:47.641Z,31.57
2019-04-06T19:11:16.449Z,35.45
2019-04-06T19:13:45.532Z,28.73
2019-04-06T19:16:16.058Z,31.20
2019-04-06T19:18:44.599Z,32.20
2019-04-06T19:21:13.956Z,30.77
2019-04-06T19:23:42.793Z,30.48
2019-04-06T19:26:11.463Z,29.65
2019-04-06T19:28:40.436Z,29.92
2019-04-06T19:31:09.193Z,34.33
2019-04-06T19:33:37.903Z,30.12
2019-04-06T19:36:08.686Z,30.32
2019-04-06T19:38:37.371Z,28.87
2019-04-06T19:41:06.323Z,30.97
2019-04-06T19:43:35.049Z,28.80
2019-04-06T19:46:04.381Z,32.45
2019-04-06T19:48:33.111Z,32.08
2019-04-06T19:51:01.984Z,29.98
2019-04-06T19:53:31.748Z,34.53
2019-04-06T19:56:09.238Z,34.25
2019-04-06T19:58:38.075Z,31.02
2019-04-06T20:01:06.913Z,34.13
2019-04-06T20:03:37.989Z,31.50
2019-04-06T20:06:05.969Z,31.62
2019-04-06T20:08:34.657Z,30.77
2019-04-06T20:11:03.649Z,32.60
2019-04-06T20:13:32.417Z,32.65
2019-04-06T20:16:01.363Z,28.40
2019-04-06T20:18:30.129Z,27.02
2019-04-06T20:20:58.861Z,30.17
2019-04-06T20:23:27.473Z,28.90
2019-04-06T20:25:56.731Z,27.65
2019-04-06T20:28:25.482Z,32.60
2019-04-06T20:30:54.490Z,24.80
2019-04-06T20:33:23.223Z,29.75
2019-04-06T20:35:52.115Z,29.07
2019-04-06T20:38:20.857Z,28.45
2019-04-06T20:40:49.514Z,31.27
2019-04-06T20:43:18.532Z,29.37
2019-04-06T20:45:47.163Z,29.07
2019-04-06T20:48:15.815Z,27.67
2019-04-06T20:50:45.074Z,29.72
2019-04-06T20:53:13.792Z,31.85
2019-04-06T20:55:42.418Z,28.10
2019-04-06T20:58:11.027Z,36.95
2019-04-06T21:00:39.816Z,35.52
2019-04-06T21:03:08.680Z,35.55
2019-04-06T21:05:38.275Z,43.63
2019-04-06T21:08:07.073Z,37.23
2019-04-06T21:10:36.255Z,36.68
2019-04-06T21:13:06.921Z,41.00
2019-04-06T21:15:35.745Z,39.65
2019-04-06T21:18:04.428Z,37.40
2019-04-06T21:20:33.162Z,39.65
2019-04-06T21:23:01.966Z,41.80
2019-04-06T21:25:31.051Z,39.88
2019-04-06T21:27:59.958Z,44.48
2019-04-06T21:30:28.801Z,37.90
2019-04-06T21:32:57.797Z,44.93
2019-04-06T21:35:26.930Z,38.50
2019-04-06T21:37:55.955Z,40.52
2019-04-06T21:40:25.072Z,38.48
2019-04-06T21:42:53.965Z,38.08
2019-04-06T21:45:23.536Z,39.75
2019-04-06T21:47:52.997Z,43.70
2019-04-06T21:50:21.904Z,40.30
2019-04-06T21:52:50.788Z,42.83
2019-04-06T21:55:19.568Z,37.73
2019-04-06T21:57:48.311Z,43.75
2019-04-06T22:00:35.627Z,47.03
2019-04-06T22:03:04.494Z,43.00
2019-04-06T22:05:33.197Z,41.10
2019-04-06T22:08:02.627Z,47.15
2019-04-06T22:10:31.503Z,39.83
2019-04-06T22:13:00.269Z,46.55
2019-04-06T22:15:29.445Z,41.28
2019-04-06T22:17:58.254Z,35.98
2019-04-06T22:20:28.052Z,34.73
2019-04-06T22:22:57.325Z,37.65
2019-04-06T22:25:26.071Z,34.58
2019-04-06T22:27:55.051Z,31.12
2019-04-06T22:30:43.314Z,37.60
2019-04-06T22:33:11.984Z,32.08
2019-04-06T22:35:40.768Z,32.55
2019-04-06T22:38:09.444Z,32.23
2019-04-06T22:40:38.135Z,28.98
2019-04-06T22:43:06.917Z,31.48
2019-04-06T22:45:37.920Z,29.48
2019-04-06T22:48:06.937Z,26.62
2019-04-06T22:50:36.015Z,29.02
2019-04-06T22:53:05.313Z,30.52
2019-04-06T22:55:34.541Z,23.75
2019-04-06T22:58:03.660Z,30.45
2019-04-06T23:00:43.083Z,28.02
2019-04-06T23:03:22.047Z,29.12
2019-04-06T23:06:08.543Z,28.70
2019-04-06T23:08:37.431Z,26.40
2019-04-06T23:11:06.388Z,29.70
2019-04-06T23:13:37.416Z,30.80
2019-04-06T23:16:06.831Z,32.85
2019-04-06T23:18:35.511Z,32.20
2019-04-06T23:21:04.300Z,28.27
2019-04-06T23:23:34.125Z,30.20
2019-04-06T23:26:02.903Z,28.02
2019-04-06T23:28:31.895Z,28.57
2019-04-06T23:31:00.592Z,28.55
2019-04-06T23:33:29.300Z,28.25
2019-04-06T23:35:58.503Z,28.83
2019-04-06T23:38:27.362Z,26.57
2019-04-06T23:40:56.102Z,27.30
2019-04-06T23:43:24.805Z,27.60
2019-04-06T23:45:53.693Z,28.20
2019-04-06T23:48:22.369Z,38.08
2019-04-06T23:50:51.631Z,27.98
2019-04-06T23:53:20.428Z,25.80
2019-04-06T23:55:49.193Z,29.27
2019-04-06T23:58:17.876Z,30.88
